Kezdőlap
METAR-TAF:

METAR-TAF

Repülőterek :

Grise Fiord, Nunavut, Kanada

földrajzi szélesség: 76-25N, földrajzi hosszúság: 082-54W, magasság: 45 m

Jelenlegi meteorológiai megfigyelések

A jelentés 5 órával és 42 perccel ezelõtt készült, 20:00 UTC
Déli szél 4 kt
Hőmérséklet 2°C
Páratartalom 80%
Légköri nyomás 1008 hPa
Látótávolság: 40.2 km
Kevés felhő 15000 lábon
Szakadozott felhőzet 18000 lábon

METAR: CWGZ 222000Z 19004KT 25SM FEW150 BKN180 02/M01 A2977 RMK AC1AC5 LAST STFFD OBS/NXT 231200UTC SLP086

Idő: 21:42 (01:42 UTC)


TAF: hiányzik

Meteorológiai megfigyelések és előrejelzések több, mint 4000 repülőtéren (METAR és TAF jelentéseket).

A térképen piros és sárga pontok jelzik az elérhető meteorológiai állomásokat.

Mozgassa az egeret a pont fölött, hogy megjelenjen az állomás neve.

Azután kattintson az időjárási megfigyelések és előrejelzések megtekintéséhez.

A térkép megváltoztatása: kattintson a fekete keresztel jelölt zöld gombra ráközelítéshez, a vonallal jelölt zöld gombra távolításhoz, vagy a zöld nyilakra a szomszédos térképek eléréséhez.


METAR-TAF: